createdAt,value
2024-01-17T00:00:17.322Z,96640.23
2024-01-17T00:03:10.800Z,96637.23
2024-01-17T00:05:44.338Z,96645.77
2024-01-17T00:08:17.927Z,96635.63
2024-01-17T00:10:51.397Z,96646.89
2024-01-17T00:13:24.923Z,96653.67
2024-01-17T00:15:58.393Z,96654.29
2024-01-17T00:18:32.046Z,96658.81
2024-01-17T00:21:05.807Z,96662.16
2024-01-17T00:23:39.108Z,96661.05
2024-01-17T00:26:12.738Z,96658.89
2024-01-17T00:28:46.047Z,96654.86
2024-01-17T00:31:19.810Z,96652.52
2024-01-17T00:33:53.440Z,96654.76
2024-01-17T00:36:26.928Z,96650.94
2024-01-17T00:39:00.631Z,96646.06
2024-01-17T00:41:34.100Z,96653.06
2024-01-17T00:44:07.397Z,96656.30
2024-01-17T00:46:40.790Z,96658.81
2024-01-17T00:49:14.155Z,96653.36
2024-01-17T00:51:47.560Z,96652.05
2024-01-17T00:54:21.073Z,96652.42
2024-01-17T00:56:57.649Z,96648.77
2024-01-17T00:59:31.238Z,96649.67
2024-01-17T01:02:05.046Z,96653.75
2024-01-17T01:04:38.557Z,96656.08
2024-01-17T01:07:12.429Z,96657.30
2024-01-17T01:09:45.811Z,96659.17
2024-01-17T01:12:19.308Z,96661.39
2024-01-17T01:14:53.030Z,96664.30
2024-01-17T01:17:26.650Z,96666.02
2024-01-17T01:20:00.331Z,96663.00
2024-01-17T01:22:33.935Z,96663.77
2024-01-17T01:25:07.856Z,96659.65
2024-01-17T01:27:41.184Z,96659.71
2024-01-17T01:30:15.736Z,96664.63
2024-01-17T01:32:49.302Z,96671.23
2024-01-17T01:35:26.045Z,96674.09
2024-01-17T01:38:00.377Z,96678.68
2024-01-17T01:40:34.232Z,96674.95
2024-01-17T01:43:21.599Z,96668.27
2024-01-17T01:46:15.305Z,96667.11
2024-01-17T01:48:50.005Z,96669.14
2024-01-17T01:51:24.184Z,96672.02
2024-01-17T01:54:00.162Z,96671.04
2024-01-17T01:56:36.736Z,96668.33
2024-01-17T01:59:10.982Z,96672.17
2024-01-17T02:01:45.097Z,96670.50
2024-01-17T02:04:19.141Z,96674.61
2024-01-17T02:06:53.142Z,96683.74
2024-01-17T02:09:27.370Z,96686.35
2024-01-17T02:12:01.180Z,96693.90
2024-01-17T02:14:37.588Z,96694.67
2024-01-17T02:17:11.910Z,96700.73
2024-01-17T02:19:46.046Z,96700.42
2024-01-17T02:22:19.645Z,96708.30
2024-01-17T02:24:52.930Z,96702.02
2024-01-17T02:27:26.963Z,96701.29
2024-01-17T02:30:00.538Z,96699.68
2024-01-17T02:32:34.814Z,96698.75
2024-01-17T02:35:09.016Z,96694.27
2024-01-17T02:37:42.362Z,96703.17
2024-01-17T02:40:16.135Z,96710.51
2024-01-17T02:42:50.435Z,96716.40
2024-01-17T02:45:24.001Z,96719.19
2024-01-17T02:47:57.662Z,96721.85
2024-01-17T02:50:31.398Z,96727.58
2024-01-17T02:53:04.912Z,96725.49
2024-01-17T02:55:38.308Z,96728.13
2024-01-17T02:58:11.664Z,96727.17
2024-01-17T03:00:45.458Z,96729.29
2024-01-17T03:03:19.284Z,96732.24
2024-01-17T03:05:53.194Z,96730.14
2024-01-17T03:08:26.751Z,96727.07
2024-01-17T03:11:00.290Z,96728.77
2024-01-17T03:13:33.861Z,96728.42
2024-01-17T03:16:07.524Z,96729.42
2024-01-17T03:18:41.557Z,96731.98
2024-01-17T03:21:15.304Z,96737.07
2024-01-17T03:23:48.610Z,96741.46
2024-01-17T03:26:22.154Z,96740.59
2024-01-17T03:28:55.510Z,96739.65
2024-01-17T03:31:28.926Z,96744.14
2024-01-17T03:34:02.315Z,96746.52
2024-01-17T03:36:35.976Z,96753.09
2024-01-17T03:39:09.474Z,96761.05
2024-01-17T03:41:43.102Z,96772.73
2024-01-17T03:44:16.437Z,96776.87
2024-01-17T03:46:49.934Z,96778.20
2024-01-17T03:49:23.687Z,96780.58
2024-01-17T03:51:57.062Z,96782.55
2024-01-17T03:54:30.653Z,96785.88
2024-01-17T03:57:04.189Z,96787.52
2024-01-17T03:59:37.774Z,96786.84
2024-01-17T04:02:11.405Z,96794.23
2024-01-17T04:04:47.529Z,96797.98
2024-01-17T04:07:23.761Z,96806.08
2024-01-17T04:09:57.316Z,96808.09
2024-01-17T04:12:30.882Z,96805.34
2024-01-17T04:15:04.199Z,96805.29
2024-01-17T04:17:37.953Z,96798.87
2024-01-17T04:20:13.613Z,96803.98
2024-01-17T04:22:47.060Z,96810.00
2024-01-17T04:25:20.426Z,96810.36
2024-01-17T04:27:53.923Z,96808.52
2024-01-17T04:30:27.567Z,96810.92
2024-01-17T04:33:02.326Z,96812.42
2024-01-17T04:35:36.623Z,96811.02
2024-01-17T04:38:10.074Z,96819.67
2024-01-17T04:40:43.545Z,96821.42
2024-01-17T04:43:16.925Z,96820.74
2024-01-17T04:45:50.326Z,96825.70
2024-01-17T04:48:23.868Z,96832.14
2024-01-17T04:51:00.507Z,96841.33
2024-01-17T04:53:34.676Z,96846.38
2024-01-17T04:56:08.790Z,96843.75
2024-01-17T04:58:42.235Z,96845.95
2024-01-17T05:01:16.063Z,96842.44
2024-01-17T05:03:49.836Z,96841.63
2024-01-17T05:06:23.371Z,96846.23
2024-01-17T05:08:57.993Z,96846.17
2024-01-17T05:11:32.218Z,96845.98
2024-01-17T05:14:05.984Z,96853.67
2024-01-17T05:16:39.581Z,96857.85
2024-01-17T05:19:16.056Z,96863.52
2024-01-17T05:21:51.317Z,96860.42
2024-01-17T05:24:24.720Z,96856.00
2024-01-17T05:26:58.133Z,96856.19
2024-01-17T05:29:31.981Z,96856.70
2024-01-17T05:32:05.468Z,96852.73
2024-01-17T05:34:39.061Z,96847.58
2024-01-17T05:37:12.603Z,96846.63
2024-01-17T05:39:46.060Z,96848.44
2024-01-17T05:42:19.605Z,96845.39
2024-01-17T05:44:53.207Z,96843.36
2024-01-17T05:47:26.610Z,96846.92
2024-01-17T05:50:04.611Z,96850.95
2024-01-17T05:52:36.297Z,96852.80
2024-01-17T05:55:11.188Z,96861.02
2024-01-17T05:57:44.581Z,96863.36
2024-01-17T06:00:20.205Z,96864.67
2024-01-17T06:02:53.793Z,96860.81
2024-01-17T06:05:27.576Z,96858.21
2024-01-17T06:08:01.089Z,96858.25
2024-01-17T06:10:35.449Z,96858.65
2024-01-17T06:13:09.625Z,96853.97
2024-01-17T06:15:43.220Z,96856.02
2024-01-17T06:18:16.872Z,96855.39
2024-01-17T06:20:50.816Z,96854.79
2024-01-17T06:23:24.193Z,96858.02
2024-01-17T06:25:57.790Z,96860.31
2024-01-17T06:28:31.273Z,96860.92
2024-01-17T06:31:05.898Z,96860.30
2024-01-17T06:33:40.921Z,96860.03
2024-01-17T06:36:14.720Z,96865.73
2024-01-17T06:38:48.504Z,96866.70
2024-01-17T06:41:22.181Z,96868.59
2024-01-17T06:43:55.941Z,96875.80
2024-01-17T06:46:29.605Z,96879.19
2024-01-17T06:49:03.295Z,96876.75
2024-01-17T06:51:36.786Z,96871.86
2024-01-17T06:54:11.066Z,96860.38
2024-01-17T06:56:44.798Z,96854.95
2024-01-17T06:59:18.329Z,96856.69
2024-01-17T07:01:51.755Z,96858.40
2024-01-17T07:04:25.290Z,96861.73
2024-01-17T07:06:58.762Z,96862.13
2024-01-17T07:09:32.642Z,96855.28
2024-01-17T07:12:07.026Z,96854.63
2024-01-17T07:14:40.815Z,96848.41
2024-01-17T07:17:14.127Z,96844.02
2024-01-17T07:19:47.972Z,96842.40
2024-01-17T07:22:21.459Z,96851.41
2024-01-17T07:24:55.453Z,96843.32
2024-01-17T07:27:28.848Z,96845.52
2024-01-17T07:30:02.516Z,96844.59
2024-01-17T07:32:36.545Z,96843.67
2024-01-17T07:35:13.690Z,96845.05
2024-01-17T07:37:47.134Z,96839.67
2024-01-17T07:40:18.786Z,96837.59
2024-01-17T07:42:52.890Z,96839.42
2024-01-17T07:45:26.608Z,96839.95
2024-01-17T07:48:00.271Z,96843.41
2024-01-17T07:50:33.987Z,96842.98
2024-01-17T07:53:09.235Z,96845.72
2024-01-17T07:55:45.667Z,96853.33
2024-01-17T07:58:19.381Z,96853.80
2024-01-17T08:00:52.904Z,96845.61
2024-01-17T08:03:30.691Z,96847.59
2024-01-17T08:06:05.079Z,96856.19
2024-01-17T08:08:39.001Z,96855.21
2024-01-17T08:11:12.461Z,96848.92
2024-01-17T08:13:46.098Z,96849.04
2024-01-17T08:16:19.781Z,96837.61
2024-01-17T08:18:53.803Z,96834.89
2024-01-17T08:21:27.385Z,96832.47
2024-01-17T08:24:01.293Z,96827.59
2024-01-17T08:26:35.039Z,96824.33
2024-01-17T08:29:08.563Z,96832.33
2024-01-17T08:31:42.293Z,96840.09
2024-01-17T08:34:16.637Z,96843.20
2024-01-17T08:36:50.212Z,96846.92
2024-01-17T08:39:23.641Z,96850.95
2024-01-17T08:41:57.462Z,96853.63
2024-01-17T08:44:31.939Z,96854.33
2024-01-17T08:47:08.229Z,96858.73
2024-01-17T08:49:44.686Z,96860.70
2024-01-17T08:52:18.361Z,96855.22
2024-01-17T08:54:51.801Z,96854.44
2024-01-17T08:57:25.407Z,96855.76
2024-01-17T09:00:00.040Z,96850.89
2024-01-17T09:02:33.991Z,96845.45
2024-01-17T09:05:09.439Z,96836.70
2024-01-17T09:07:45.202Z,96836.59
2024-01-17T09:10:19.359Z,96834.06
2024-01-17T09:12:55.339Z,96828.71
2024-01-17T09:15:29.296Z,96828.73
2024-01-17T09:18:03.064Z,96823.29
2024-01-17T09:20:36.648Z,96816.73
2024-01-17T09:23:10.603Z,96816.52
2024-01-17T09:25:44.136Z,96810.59
2024-01-17T09:28:17.795Z,96808.81
2024-01-17T09:30:51.575Z,96799.45
2024-01-17T09:33:26.538Z,96794.36
2024-01-17T09:36:02.840Z,96795.34
2024-01-17T09:38:37.141Z,96790.49
2024-01-17T09:41:15.431Z,96794.02
2024-01-17T09:43:49.036Z,96791.36
2024-01-17T09:46:23.008Z,96789.14
2024-01-17T09:48:57.296Z,96789.27
2024-01-17T09:51:32.732Z,96795.08
2024-01-17T09:54:07.668Z,96790.70
2024-01-17T09:56:42.515Z,96790.48
2024-01-17T09:59:18.959Z,96793.23
2024-01-17T10:01:52.549Z,96791.50
2024-01-17T10:04:26.380Z,96797.71
2024-01-17T10:07:01.377Z,96805.09
2024-01-17T10:09:35.216Z,96805.29
2024-01-17T10:12:09.928Z,96803.30
2024-01-17T10:14:43.896Z,96800.19
2024-01-17T10:17:17.652Z,96803.89
2024-01-17T10:19:51.412Z,96805.18
2024-01-17T10:22:25.542Z,96807.09
2024-01-17T10:24:59.235Z,96808.32
2024-01-17T10:27:33.509Z,96808.84
2024-01-17T10:30:08.422Z,96805.46
2024-01-17T10:32:43.543Z,96803.30
2024-01-17T10:35:21.443Z,96805.12
2024-01-17T10:37:55.835Z,96807.13
2024-01-17T10:40:30.845Z,96807.17
2024-01-17T10:43:12.634Z,96810.30
2024-01-17T10:45:46.583Z,96803.98
2024-01-17T10:48:20.059Z,96804.89
2024-01-17T10:50:55.703Z,96808.89
2024-01-17T10:53:33.039Z,96803.55
2024-01-17T10:56:09.342Z,96815.65
2024-01-17T10:58:43.220Z,96806.23
2024-01-17T11:01:18.775Z,96809.85
2024-01-17T11:03:54.417Z,96814.99
2024-01-17T11:06:29.113Z,96819.80
2024-01-17T11:09:03.326Z,96831.92
2024-01-17T11:11:39.241Z,96827.02
2024-01-17T11:14:13.235Z,96832.09
2024-01-17T11:16:50.529Z,96840.63
2024-01-17T11:19:24.974Z,96839.98
2024-01-17T11:21:58.903Z,96842.10
2024-01-17T11:24:42.814Z,96842.67
2024-01-17T11:27:24.140Z,96848.59
2024-01-17T11:30:03.870Z,96841.50
2024-01-17T11:32:52.727Z,96843.85
2024-01-17T11:35:47.410Z,96849.70
2024-01-17T11:38:33.196Z,96850.74
2024-01-17T11:41:11.069Z,96863.17
2024-01-17T11:43:44.483Z,96870.88
2024-01-17T11:46:18.028Z,96870.83
2024-01-17T11:48:52.068Z,96880.79
2024-01-17T11:51:29.529Z,96879.86
2024-01-17T11:54:04.840Z,96882.05
2024-01-17T11:56:38.361Z,96883.39
2024-01-17T11:59:14.834Z,96885.43
2024-01-17T12:01:48.965Z,96891.30
2024-01-17T12:04:23.385Z,96892.07
2024-01-17T12:06:57.169Z,96896.11
2024-01-17T12:09:31.547Z,96895.65
2024-01-17T12:12:05.736Z,96892.68
2024-01-17T12:14:40.001Z,96894.30
2024-01-17T12:17:14.200Z,96893.45
2024-01-17T12:19:47.764Z,96897.09
2024-01-17T12:22:21.499Z,96900.13
2024-01-17T12:24:55.124Z,96901.90
2024-01-17T12:27:32.415Z,96899.81
2024-01-17T12:30:08.275Z,96897.11
2024-01-17T12:32:42.356Z,96901.37
2024-01-17T12:35:16.301Z,96904.24
2024-01-17T12:37:51.106Z,96905.96
2024-01-17T12:40:25.234Z,96907.50
2024-01-17T12:43:01.046Z,96906.05
2024-01-17T12:45:35.714Z,96911.31
2024-01-17T12:48:11.722Z,96919.90
2024-01-17T12:50:49.667Z,96915.67
2024-01-17T12:53:25.443Z,96924.42
2024-01-17T12:56:00.368Z,96925.70
2024-01-17T12:58:35.053Z,96927.91
2024-01-17T13:01:08.893Z,96938.60
2024-01-17T13:03:44.190Z,96940.31
2024-01-17T13:06:17.687Z,96941.20
2024-01-17T13:08:51.388Z,96942.60
2024-01-17T13:11:26.882Z,96950.55
2024-01-17T13:14:05.072Z,96958.17
2024-01-17T13:16:38.600Z,96961.09
2024-01-17T13:19:15.592Z,96964.63
2024-01-17T13:21:50.250Z,96966.17
2024-01-17T13:24:24.650Z,96971.70
2024-01-17T13:26:58.167Z,96977.05
2024-01-17T13:29:31.796Z,96981.71
2024-01-17T13:32:06.161Z,96981.60
2024-01-17T13:34:41.393Z,96986.21
2024-01-17T13:37:14.940Z,96989.05
2024-01-17T13:39:48.521Z,96991.34
2024-01-17T13:42:21.974Z,96993.52
2024-01-17T13:44:55.883Z,96996.56
2024-01-17T13:47:30.486Z,97001.17
2024-01-17T13:50:17.974Z,97002.67
2024-01-17T13:52:53.025Z,97012.67
2024-01-17T13:55:27.945Z,97018.44
2024-01-17T13:58:01.477Z,97024.16
2024-01-17T14:00:40.347Z,97026.54
2024-01-17T14:03:16.538Z,97031.69
2024-01-17T14:05:53.590Z,97036.52
2024-01-17T14:08:27.752Z,97031.38
2024-01-17T14:11:01.444Z,97033.92
2024-01-17T14:13:35.061Z,97035.38
2024-01-17T14:16:09.585Z,97040.19
2024-01-17T14:18:44.748Z,97043.95
2024-01-17T14:21:18.494Z,97044.27
2024-01-17T14:23:51.974Z,97049.20
2024-01-17T14:26:25.528Z,97051.64
2024-01-17T14:28:59.285Z,97053.77
2024-01-17T14:31:33.436Z,97061.14
2024-01-17T14:34:11.467Z,97062.44
2024-01-17T14:36:45.231Z,97067.37
2024-01-17T14:39:22.176Z,97068.77
2024-01-17T14:41:56.732Z,97070.43
2024-01-17T14:44:30.173Z,97073.65
2024-01-17T14:47:05.689Z,97075.16
2024-01-17T14:49:39.212Z,97078.48
2024-01-17T14:52:13.013Z,97082.56
2024-01-17T14:54:47.033Z,97080.64
2024-01-17T14:57:21.913Z,97076.01
2024-01-17T14:59:56.019Z,97077.08
2024-01-17T15:02:29.490Z,97080.14
2024-01-17T15:05:02.969Z,97081.91
2024-01-17T15:07:36.773Z,97085.84
2024-01-17T15:10:12.392Z,97087.05
2024-01-17T15:12:46.323Z,97098.08
2024-01-17T15:15:20.017Z,97103.71
2024-01-17T15:17:54.863Z,97105.50
2024-01-17T15:20:29.308Z,97107.40
2024-01-17T15:23:02.929Z,97107.18
2024-01-17T15:25:36.245Z,97113.42
2024-01-17T15:28:10.452Z,97112.66
2024-01-17T15:30:46.489Z,97120.30
2024-01-17T15:33:24.047Z,97126.55
2024-01-17T15:35:57.795Z,97134.85
2024-01-17T15:38:33.068Z,97137.91
2024-01-17T15:41:07.438Z,97136.06
2024-01-17T15:43:40.911Z,97138.84
2024-01-17T15:46:14.586Z,97143.38
2024-01-17T15:48:48.417Z,97148.11
2024-01-17T15:51:22.823Z,97145.67
2024-01-17T15:53:57.883Z,97147.58
2024-01-17T15:56:31.654Z,97148.98
2024-01-17T15:59:05.102Z,97152.55
2024-01-17T16:01:38.644Z,97152.25
2024-01-17T16:04:14.672Z,97157.06
2024-01-17T16:06:48.297Z,97163.06
2024-01-17T16:09:21.951Z,97165.85
2024-01-17T16:11:55.451Z,97167.85
2024-01-17T16:14:28.978Z,97165.80
2024-01-17T16:17:04.104Z,97167.10
2024-01-17T16:19:38.470Z,97164.09
2024-01-17T16:22:13.327Z,97169.33
2024-01-17T16:24:46.789Z,97170.02
2024-01-17T16:27:20.318Z,97173.74
2024-01-17T16:29:54.184Z,97173.52
2024-01-17T16:32:27.847Z,97173.81
2024-01-17T16:35:02.389Z,97176.77
2024-01-17T16:37:36.452Z,97178.88
2024-01-17T16:40:12.482Z,97182.65
2024-01-17T16:42:46.238Z,97183.90
2024-01-17T16:45:20.970Z,97185.66
2024-01-17T16:47:58.324Z,97181.52
2024-01-17T16:50:32.253Z,97182.44
2024-01-17T16:53:05.803Z,97183.27
2024-01-17T16:55:44.726Z,97178.21
2024-01-17T16:58:18.467Z,97181.38
2024-01-17T17:00:52.309Z,97180.96
2024-01-17T17:03:26.594Z,97180.80
2024-01-17T17:06:00.525Z,97177.83
2024-01-17T17:08:34.953Z,97181.32
2024-01-17T17:11:09.544Z,97178.88
2024-01-17T17:13:47.123Z,97178.80
2024-01-17T17:16:22.782Z,97176.77
2024-01-17T17:18:56.841Z,97179.16
2024-01-17T17:21:31.238Z,97180.11
2024-01-17T17:24:05.660Z,97184.90
2024-01-17T17:26:43.581Z,97198.46
2024-01-17T17:29:17.180Z,97199.13
2024-01-17T17:31:50.701Z,97204.05
2024-01-17T17:34:24.209Z,97203.80
2024-01-17T17:36:57.772Z,97206.29
2024-01-17T17:39:31.392Z,97209.13
2024-01-17T17:42:04.882Z,97210.73
2024-01-17T17:44:38.367Z,97210.13
2024-01-17T17:47:11.960Z,97211.14
2024-01-17T17:49:45.902Z,97209.98
2024-01-17T17:52:20.468Z,97210.79
2024-01-17T17:54:59.268Z,97208.07
2024-01-17T17:57:33.401Z,97213.28
2024-01-17T18:00:07.904Z,97215.70
2024-01-17T18:02:41.481Z,97222.81
2024-01-17T18:05:15.241Z,97230.42
2024-01-17T18:07:48.857Z,97226.06
2024-01-17T18:10:23.329Z,97224.80
2024-01-17T18:12:56.881Z,97223.58
2024-01-17T18:15:31.829Z,97227.30
2024-01-17T18:18:05.460Z,97234.46
2024-01-17T18:20:38.933Z,97239.77
2024-01-17T18:23:12.579Z,97249.73
2024-01-17T18:25:48.374Z,97253.45
2024-01-17T18:28:21.859Z,97251.88
2024-01-17T18:30:55.370Z,97257.23
2024-01-17T18:33:29.369Z,97259.46
2024-01-17T18:36:02.987Z,97258.00
2024-01-17T18:38:37.435Z,97262.33
2024-01-17T18:41:11.695Z,97258.61
2024-01-17T18:43:45.875Z,97254.52
2024-01-17T18:46:22.025Z,97255.77
2024-01-17T18:48:57.175Z,97258.14
2024-01-17T18:51:31.312Z,97257.53
2024-01-17T18:54:05.946Z,97259.88
2024-01-17T18:56:39.412Z,97264.13
2024-01-17T18:59:13.024Z,97262.81
2024-01-17T19:01:46.557Z,97261.34
2024-01-17T19:04:20.617Z,97264.40
2024-01-17T19:06:54.324Z,97264.92
2024-01-17T19:09:27.887Z,97270.63
2024-01-17T19:12:01.449Z,97271.25
2024-01-17T19:14:35.298Z,97271.87
2024-01-17T19:17:09.217Z,97276.11
2024-01-17T19:19:42.663Z,97275.65
2024-01-17T19:22:16.236Z,97276.17
2024-01-17T19:24:52.219Z,97279.35
2024-01-17T19:27:25.756Z,97287.26
2024-01-17T19:29:59.224Z,97287.23
2024-01-17T19:32:32.906Z,97288.84
2024-01-17T19:35:07.100Z,97293.06
2024-01-17T19:37:41.401Z,97294.45
2024-01-17T19:40:15.945Z,97300.00
2024-01-17T19:42:49.916Z,97296.98
2024-01-17T19:45:24.233Z,97294.02
2024-01-17T19:47:57.789Z,97298.73
2024-01-17T19:50:31.786Z,97297.50
2024-01-17T19:53:07.343Z,97296.38
2024-01-17T19:55:41.185Z,97295.59
2024-01-17T19:58:24.803Z,97292.10
2024-01-17T20:00:58.651Z,97302.49
2024-01-17T20:03:32.285Z,97301.39
2024-01-17T20:06:10.557Z,97306.20
2024-01-17T20:08:44.932Z,97310.77
2024-01-17T20:11:19.662Z,97310.13
2024-01-17T20:13:53.202Z,97311.11
2024-01-17T20:16:27.261Z,97311.09
2024-01-17T20:19:04.530Z,97314.16
2024-01-17T20:21:38.162Z,97317.25
2024-01-17T20:24:12.396Z,97320.35
2024-01-17T20:26:46.009Z,97319.11
2024-01-17T20:29:19.727Z,97314.31
2024-01-17T20:31:53.200Z,97320.79
2024-01-17T20:34:26.793Z,97319.83
2024-01-17T20:37:01.765Z,97317.89
2024-01-17T20:39:35.567Z,97326.02
2024-01-17T20:42:09.586Z,97327.27
2024-01-17T20:44:43.137Z,97323.00
2024-01-17T20:47:16.666Z,97332.95
2024-01-17T20:49:50.044Z,97336.00
2024-01-17T20:52:23.535Z,97341.65
2024-01-17T20:54:58.449Z,97339.08
2024-01-17T20:57:32.722Z,97343.25
2024-01-17T21:00:07.451Z,97345.05
2024-01-17T21:02:41.340Z,97347.59
2024-01-17T21:05:14.721Z,97354.98
2024-01-17T21:07:48.131Z,97352.70
2024-01-17T21:10:21.587Z,97358.70
2024-01-17T21:12:55.148Z,97358.55
2024-01-17T21:15:28.952Z,97354.01
2024-01-17T21:18:03.230Z,97359.11
2024-01-17T21:20:37.743Z,97363.13
2024-01-17T21:23:11.627Z,97363.52
2024-01-17T21:25:45.305Z,97364.15
2024-01-17T21:28:19.416Z,97364.86
2024-01-17T21:30:52.746Z,97365.86
2024-01-17T21:33:26.502Z,97368.52
2024-01-17T21:36:00.773Z,97376.59
2024-01-17T21:38:34.594Z,97377.51
2024-01-17T21:41:08.501Z,97377.94
2024-01-17T21:43:42.392Z,97379.15
2024-01-17T21:46:16.468Z,97388.62
2024-01-17T21:48:50.275Z,97387.43
2024-01-17T21:51:23.767Z,97387.94
2024-01-17T21:53:57.450Z,97390.89
2024-01-17T21:56:30.957Z,97387.83
2024-01-17T21:59:05.745Z,97381.46
2024-01-17T22:01:39.382Z,97384.48
2024-01-17T22:04:12.950Z,97381.55
2024-01-17T22:06:46.653Z,97387.88
2024-01-17T22:09:20.403Z,97391.83
2024-01-17T22:11:53.899Z,97389.88
2024-01-17T22:14:27.731Z,97394.90
2024-01-17T22:17:01.218Z,97400.39
2024-01-17T22:19:34.767Z,97401.15
2024-01-17T22:22:08.689Z,97397.96
2024-01-17T22:24:42.242Z,97400.82
2024-01-17T22:27:15.872Z,97395.16
2024-01-17T22:29:49.295Z,97392.69
2024-01-17T22:32:22.807Z,97396.75
2024-01-17T22:34:59.328Z,97394.08
2024-01-17T22:37:33.606Z,97399.03
2024-01-17T22:40:09.460Z,97402.91
2024-01-17T22:42:44.598Z,97404.73
2024-01-17T22:45:18.163Z,97403.84
2024-01-17T22:47:52.030Z,97405.03
2024-01-17T22:50:25.679Z,97407.84
2024-01-17T22:53:03.065Z,97412.23
2024-01-17T22:55:37.754Z,97413.20
2024-01-17T22:58:11.417Z,97419.93
2024-01-17T23:00:45.869Z,97422.23
2024-01-17T23:03:19.506Z,97425.64
2024-01-17T23:05:53.337Z,97424.90
2024-01-17T23:08:27.366Z,97423.94
2024-01-17T23:11:11.642Z,97417.13
2024-01-17T23:13:54.198Z,97416.93
2024-01-17T23:16:27.563Z,97411.87
2024-01-17T23:19:01.344Z,97415.50
2024-01-17T23:21:35.058Z,97415.91
2024-01-17T23:24:10.313Z,97416.23
2024-01-17T23:26:43.780Z,97410.54
2024-01-17T23:29:17.549Z,97415.98
2024-01-17T23:31:51.052Z,97415.77
2024-01-17T23:34:24.631Z,97422.31
2024-01-17T23:36:58.195Z,97418.54
2024-01-17T23:39:31.744Z,97417.52
2024-01-17T23:42:05.433Z,97418.68
2024-01-17T23:44:39.045Z,97420.59
2024-01-17T23:47:12.765Z,97424.02
2024-01-17T23:49:46.290Z,97419.52
2024-01-17T23:52:19.685Z,97421.73
2024-01-17T23:54:53.332Z,97421.47
2024-01-17T23:57:26.985Z,97423.48
